sensor_id;sensor_type;location;lat;lon;timestamp;P1;durP1;ratioP1;P2;durP2;ratioP2
28988;SDS011;16089;59.952;10.818;2023-07-22T00:01:38;2.15;;;0.82;;
28988;SDS011;16089;59.952;10.818;2023-07-22T00:04:04;1.88;;;0.85;;
28988;SDS011;16089;59.952;10.818;2023-07-22T00:06:30;2.05;;;0.90;;
28988;SDS011;16089;59.952;10.818;2023-07-22T00:08:57;3.35;;;1.10;;
28988;SDS011;16089;59.952;10.818;2023-07-22T00:11:25;1.80;;;0.98;;
28988;SDS011;16089;59.952;10.818;2023-07-22T00:13:51;2.38;;;0.90;;
28988;SDS011;16089;59.952;10.818;2023-07-22T00:16:18;2.08;;;0.90;;
28988;SDS011;16089;59.952;10.818;2023-07-22T00:18:44;5.78;;;1.30;;
28988;SDS011;16089;59.952;10.818;2023-07-22T00:21:12;4.13;;;1.10;;
28988;SDS011;16089;59.952;10.818;2023-07-22T00:23:38;5.35;;;1.10;;
28988;SDS011;16089;59.952;10.818;2023-07-22T00:26:05;4.45;;;1.30;;
28988;SDS011;16089;59.952;10.818;2023-07-22T00:28:32;4.10;;;1.00;;
28988;SDS011;16089;59.952;10.818;2023-07-22T00:30:59;2.05;;;0.98;;
28988;SDS011;16089;59.952;10.818;2023-07-22T00:33:28;4.50;;;1.10;;
28988;SDS011;16089;59.952;10.818;2023-07-22T00:35:54;3.50;;;1.27;;
28988;SDS011;16089;59.952;10.818;2023-07-22T00:38:21;4.53;;;1.27;;
28988;SDS011;16089;59.952;10.818;2023-07-22T00:40:47;5.78;;;1.30;;
28988;SDS011;16089;59.952;10.818;2023-07-22T00:43:14;4.72;;;1.30;;
28988;SDS011;16089;59.952;10.818;2023-07-22T00:45:42;4.03;;;1.10;;
28988;SDS011;16089;59.952;10.818;2023-07-22T00:48:09;4.15;;;1.55;;
28988;SDS011;16089;59.952;10.818;2023-07-22T00:50:35;5.78;;;1.40;;
28988;SDS011;16089;59.952;10.818;2023-07-22T00:53:02;6.20;;;1.30;;
28988;SDS011;16089;59.952;10.818;2023-07-22T00:55:28;4.85;;;1.23;;
28988;SDS011;16089;59.952;10.818;2023-07-22T00:57:55;9.60;;;1.38;;
28988;SDS011;16089;59.952;10.818;2023-07-22T01:00:21;3.10;;;1.20;;
28988;SDS011;16089;59.952;10.818;2023-07-22T01:02:49;6.47;;;1.20;;
28988;SDS011;16089;59.952;10.818;2023-07-22T01:05:15;8.20;;;1.60;;
28988;SDS011;16089;59.952;10.818;2023-07-22T01:07:42;7.53;;;1.45;;
28988;SDS011;16089;59.952;10.818;2023-07-22T01:10:09;4.03;;;1.33;;
28988;SDS011;16089;59.952;10.818;2023-07-22T01:12:35;7.07;;;1.83;;
28988;SDS011;16089;59.952;10.818;2023-07-22T01:15:02;4.38;;;1.20;;
28988;SDS011;16089;59.952;10.818;2023-07-22T01:17:32;6.82;;;1.55;;
28988;SDS011;16089;59.952;10.818;2023-07-22T01:20:00;5.93;;;1.50;;
28988;SDS011;16089;59.952;10.818;2023-07-22T01:22:27;7.10;;;1.45;;
28988;SDS011;16089;59.952;10.818;2023-07-22T01:24:55;11.45;;;1.77;;
28988;SDS011;16089;59.952;10.818;2023-07-22T01:27:22;7.40;;;1.83;;
28988;SDS011;16089;59.952;10.818;2023-07-22T01:29:49;5.10;;;1.30;;
28988;SDS011;16089;59.952;10.818;2023-07-22T01:32:16;7.30;;;1.40;;
28988;SDS011;16089;59.952;10.818;2023-07-22T01:34:43;6.93;;;1.48;;
28988;SDS011;16089;59.952;10.818;2023-07-22T01:37:09;8.15;;;1.70;;
28988;SDS011;16089;59.952;10.818;2023-07-22T01:39:35;7.13;;;1.50;;
28988;SDS011;16089;59.952;10.818;2023-07-22T01:42:03;7.82;;;1.40;;
28988;SDS011;16089;59.952;10.818;2023-07-22T01:44:30;8.90;;;1.50;;
28988;SDS011;16089;59.952;10.818;2023-07-22T01:46:56;10.30;;;1.50;;
28988;SDS011;16089;59.952;10.818;2023-07-22T01:49:23;10.80;;;1.92;;
28988;SDS011;16089;59.952;10.818;2023-07-22T01:51:50;7.55;;;1.55;;
28988;SDS011;16089;59.952;10.818;2023-07-22T01:54:17;5.45;;;1.60;;
28988;SDS011;16089;59.952;10.818;2023-07-22T01:56:44;7.88;;;2.00;;
28988;SDS011;16089;59.952;10.818;2023-07-22T01:59:12;9.82;;;1.60;;
28988;SDS011;16089;59.952;10.818;2023-07-22T02:01:38;7.28;;;1.73;;
28988;SDS011;16089;59.952;10.818;2023-07-22T02:04:05;7.95;;;1.70;;
28988;SDS011;16089;59.952;10.818;2023-07-22T02:06:31;8.02;;;1.60;;
28988;SDS011;16089;59.952;10.818;2023-07-22T02:08:58;7.25;;;1.50;;
28988;SDS011;16089;59.952;10.818;2023-07-22T02:11:24;6.35;;;1.95;;
28988;SDS011;16089;59.952;10.818;2023-07-22T02:13:50;7.88;;;1.83;;
28988;SDS011;16089;59.952;10.818;2023-07-22T02:16:18;8.15;;;1.80;;
28988;SDS011;16089;59.952;10.818;2023-07-22T02:18:44;8.65;;;1.50;;
28988;SDS011;16089;59.952;10.818;2023-07-22T02:21:11;7.38;;;1.70;;
28988;SDS011;16089;59.952;10.818;2023-07-22T02:23:37;11.27;;;1.98;;
28988;SDS011;16089;59.952;10.818;2023-07-22T02:26:03;11.48;;;1.80;;
28988;SDS011;16089;59.952;10.818;2023-07-22T02:28:30;10.18;;;1.75;;
28988;SDS011;16089;59.952;10.818;2023-07-22T02:31:00;7.80;;;1.60;;
28988;SDS011;16089;59.952;10.818;2023-07-22T02:33:28;15.25;;;2.40;;
28988;SDS011;16089;59.952;10.818;2023-07-22T02:35:55;8.13;;;1.90;;
28988;SDS011;16089;59.952;10.818;2023-07-22T02:38:21;12.50;;;2.20;;
28988;SDS011;16089;59.952;10.818;2023-07-22T02:40:47;9.50;;;2.03;;
28988;SDS011;16089;59.952;10.818;2023-07-22T02:43:13;8.50;;;2.08;;
28988;SDS011;16089;59.952;10.818;2023-07-22T02:45:40;13.23;;;2.30;;
28988;SDS011;16089;59.952;10.818;2023-07-22T02:48:06;11.98;;;2.17;;
28988;SDS011;16089;59.952;10.818;2023-07-22T02:50:35;10.48;;;1.92;;
28988;SDS011;16089;59.952;10.818;2023-07-22T02:53:02;9.40;;;2.10;;
28988;SDS011;16089;59.952;10.818;2023-07-22T02:55:28;10.27;;;2.20;;
28988;SDS011;16089;59.952;10.818;2023-07-22T02:57:55;15.55;;;2.30;;
28988;SDS011;16089;59.952;10.818;2023-07-22T03:00:21;20.73;;;3.13;;
28988;SDS011;16089;59.952;10.818;2023-07-22T03:02:49;17.67;;;2.33;;
28988;SDS011;16089;59.952;10.818;2023-07-22T03:05:17;25.92;;;2.63;;
28988;SDS011;16089;59.952;10.818;2023-07-22T03:07:45;22.58;;;2.40;;
28988;SDS011;16089;59.952;10.818;2023-07-22T03:10:11;21.35;;;2.60;;
28988;SDS011;16089;59.952;10.818;2023-07-22T03:12:37;27.88;;;3.25;;
28988;SDS011;16089;59.952;10.818;2023-07-22T03:15:04;24.83;;;2.85;;
28988;SDS011;16089;59.952;10.818;2023-07-22T03:17:33;27.33;;;2.92;;
28988;SDS011;16089;59.952;10.818;2023-07-22T03:19:59;23.27;;;2.97;;
28988;SDS011;16089;59.952;10.818;2023-07-22T03:22:26;18.63;;;2.38;;
28988;SDS011;16089;59.952;10.818;2023-07-22T03:24:53;29.13;;;2.92;;
28988;SDS011;16089;59.952;10.818;2023-07-22T03:27:19;25.77;;;3.15;;
28988;SDS011;16089;59.952;10.818;2023-07-22T03:29:46;29.75;;;3.03;;
28988;SDS011;16089;59.952;10.818;2023-07-22T03:32:13;34.45;;;3.33;;
28988;SDS011;16089;59.952;10.818;2023-07-22T03:34:39;42.35;;;3.75;;
28988;SDS011;16089;59.952;10.818;2023-07-22T03:37:06;39.45;;;3.47;;
28988;SDS011;16089;59.952;10.818;2023-07-22T03:39:34;36.28;;;3.58;;
28988;SDS011;16089;59.952;10.818;2023-07-22T03:42:02;39.05;;;3.40;;
28988;SDS011;16089;59.952;10.818;2023-07-22T03:44:29;38.08;;;3.65;;
28988;SDS011;16089;59.952;10.818;2023-07-22T03:46:55;37.30;;;3.53;;
28988;SDS011;16089;59.952;10.818;2023-07-22T03:49:21;45.08;;;4.25;;
28988;SDS011;16089;59.952;10.818;2023-07-22T03:51:48;37.03;;;3.63;;
28988;SDS011;16089;59.952;10.818;2023-07-22T03:54:14;40.63;;;3.70;;
28988;SDS011;16089;59.952;10.818;2023-07-22T03:56:40;43.08;;;3.55;;
28988;SDS011;16089;59.952;10.818;2023-07-22T03:59:08;48.00;;;4.63;;
28988;SDS011;16089;59.952;10.818;2023-07-22T04:01:34;43.22;;;4.00;;
28988;SDS011;16089;59.952;10.818;2023-07-22T04:04:01;45.60;;;4.07;;
28988;SDS011;16089;59.952;10.818;2023-07-22T04:06:27;47.10;;;4.60;;
28988;SDS011;16089;59.952;10.818;2023-07-22T04:08:53;48.70;;;4.32;;
28988;SDS011;16089;59.952;10.818;2023-07-22T04:11:20;40.08;;;4.43;;
28988;SDS011;16089;59.952;10.818;2023-07-22T04:13:46;43.42;;;4.03;;
28988;SDS011;16089;59.952;10.818;2023-07-22T04:16:15;42.05;;;4.65;;
28988;SDS011;16089;59.952;10.818;2023-07-22T04:18:41;39.97;;;4.60;;
28988;SDS011;16089;59.952;10.818;2023-07-22T04:21:07;34.35;;;4.30;;
28988;SDS011;16089;59.952;10.818;2023-07-22T04:23:34;32.30;;;4.80;;
28988;SDS011;16089;59.952;10.818;2023-07-22T04:26:01;40.38;;;4.03;;
28988;SDS011;16089;59.952;10.818;2023-07-22T04:28:29;35.03;;;5.78;;
28988;SDS011;16089;59.952;10.818;2023-07-22T04:30:56;32.88;;;4.93;;
28988;SDS011;16089;59.952;10.818;2023-07-22T04:33:24;29.80;;;4.93;;
28988;SDS011;16089;59.952;10.818;2023-07-22T04:35:52;32.97;;;4.20;;
28988;SDS011;16089;59.952;10.818;2023-07-22T04:38:19;27.20;;;5.05;;
28988;SDS011;16089;59.952;10.818;2023-07-22T04:40:45;29.20;;;4.63;;
28988;SDS011;16089;59.952;10.818;2023-07-22T04:43:12;24.15;;;4.88;;
28988;SDS011;16089;59.952;10.818;2023-07-22T04:45:39;26.08;;;4.63;;
28988;SDS011;16089;59.952;10.818;2023-07-22T04:48:06;21.52;;;4.40;;
28988;SDS011;16089;59.952;10.818;2023-07-22T04:50:34;18.73;;;4.18;;
28988;SDS011;16089;59.952;10.818;2023-07-22T04:53:00;24.45;;;4.80;;
28988;SDS011;16089;59.952;10.818;2023-07-22T04:55:27;24.65;;;4.88;;
28988;SDS011;16089;59.952;10.818;2023-07-22T04:57:54;21.00;;;4.50;;
28988;SDS011;16089;59.952;10.818;2023-07-22T05:00:21;16.42;;;3.58;;
28988;SDS011;16089;59.952;10.818;2023-07-22T05:02:47;16.02;;;4.40;;
28988;SDS011;16089;59.952;10.818;2023-07-22T05:05:14;10.63;;;2.80;;
28988;SDS011;16089;59.952;10.818;2023-07-22T05:07:42;16.10;;;2.88;;
28988;SDS011;16089;59.952;10.818;2023-07-22T05:10:08;9.90;;;2.78;;
28988;SDS011;16089;59.952;10.818;2023-07-22T05:12:37;11.75;;;3.00;;
28988;SDS011;16089;59.952;10.818;2023-07-22T05:15:03;9.23;;;2.78;;
28988;SDS011;16089;59.952;10.818;2023-07-22T05:17:30;9.05;;;2.53;;
28988;SDS011;16089;59.952;10.818;2023-07-22T05:19:56;9.63;;;2.75;;
28988;SDS011;16089;59.952;10.818;2023-07-22T05:22:23;13.45;;;2.97;;
28988;SDS011;16089;59.952;10.818;2023-07-22T05:24:51;8.80;;;2.50;;
28988;SDS011;16089;59.952;10.818;2023-07-22T05:27:20;11.00;;;2.75;;
28988;SDS011;16089;59.952;10.818;2023-07-22T05:29:46;8.90;;;2.00;;
28988;SDS011;16089;59.952;10.818;2023-07-22T05:32:13;10.30;;;2.00;;
28988;SDS011;16089;59.952;10.818;2023-07-22T05:34:39;6.53;;;1.80;;
28988;SDS011;16089;59.952;10.818;2023-07-22T05:37:05;6.72;;;1.70;;
28988;SDS011;16089;59.952;10.818;2023-07-22T05:39:32;5.90;;;1.73;;
28988;SDS011;16089;59.952;10.818;2023-07-22T05:41:59;4.60;;;1.63;;
28988;SDS011;16089;59.952;10.818;2023-07-22T05:44:26;6.20;;;1.38;;
28988;SDS011;16089;59.952;10.818;2023-07-22T05:46:52;4.40;;;1.40;;
28988;SDS011;16089;59.952;10.818;2023-07-22T05:49:18;4.22;;;1.30;;
28988;SDS011;16089;59.952;10.818;2023-07-22T05:51:45;8.18;;;1.85;;
28988;SDS011;16089;59.952;10.818;2023-07-22T05:54:11;5.90;;;1.67;;
28988;SDS011;16089;59.952;10.818;2023-07-22T05:56:37;4.13;;;1.45;;
28988;SDS011;16089;59.952;10.818;2023-07-22T05:59:05;3.78;;;1.52;;
28988;SDS011;16089;59.952;10.818;2023-07-22T06:01:31;4.68;;;1.40;;
28988;SDS011;16089;59.952;10.818;2023-07-22T06:03:58;3.33;;;1.30;;
28988;SDS011;16089;59.952;10.818;2023-07-22T06:06:24;3.70;;;1.30;;
28988;SDS011;16089;59.952;10.818;2023-07-22T06:08:50;2.80;;;1.35;;
28988;SDS011;16089;59.952;10.818;2023-07-22T06:11:17;2.63;;;1.20;;
28988;SDS011;16089;59.952;10.818;2023-07-22T06:13:43;3.55;;;1.30;;
28988;SDS011;16089;59.952;10.818;2023-07-22T06:16:11;2.85;;;1.02;;
28988;SDS011;16089;59.952;10.818;2023-07-22T06:18:37;2.72;;;1.20;;
28988;SDS011;16089;59.952;10.818;2023-07-22T06:21:03;2.90;;;1.17;;
28988;SDS011;16089;59.952;10.818;2023-07-22T06:23:30;2.65;;;1.20;;
28988;SDS011;16089;59.952;10.818;2023-07-22T06:25:56;2.92;;;1.10;;
28988;SDS011;16089;59.952;10.818;2023-07-22T06:28:22;3.00;;;1.30;;
28988;SDS011;16089;59.952;10.818;2023-07-22T06:30:49;3.42;;;1.20;;
28988;SDS011;16089;59.952;10.818;2023-07-22T06:33:16;3.30;;;1.30;;
28988;SDS011;16089;59.952;10.818;2023-07-22T06:35:42;2.42;;;1.20;;
28988;SDS011;16089;59.952;10.818;2023-07-22T06:38:09;3.35;;;1.17;;
28988;SDS011;16089;59.952;10.818;2023-07-22T06:40:35;2.58;;;1.10;;
28988;SDS011;16089;59.952;10.818;2023-07-22T06:43:01;1.90;;;1.00;;
28988;SDS011;16089;59.952;10.818;2023-07-22T06:45:28;1.63;;;0.90;;
28988;SDS011;16089;59.952;10.818;2023-07-22T06:47:54;2.17;;;1.08;;
28988;SDS011;16089;59.952;10.818;2023-07-22T06:50:22;3.42;;;1.00;;
28988;SDS011;16089;59.952;10.818;2023-07-22T06:52:48;2.75;;;0.90;;
28988;SDS011;16089;59.952;10.818;2023-07-22T06:55:15;3.08;;;1.00;;
28988;SDS011;16089;59.952;10.818;2023-07-22T06:57:41;1.55;;;1.00;;
28988;SDS011;16089;59.952;10.818;2023-07-22T07:00:08;1.33;;;0.75;;
28988;SDS011;16089;59.952;10.818;2023-07-22T07:02:35;2.30;;;0.70;;
28988;SDS011;16089;59.952;10.818;2023-07-22T07:05:01;1.85;;;0.85;;
28988;SDS011;16089;59.952;10.818;2023-07-22T07:07:30;2.72;;;1.10;;
28988;SDS011;16089;59.952;10.818;2023-07-22T07:09:57;2.33;;;1.13;;
28988;SDS011;16089;59.952;10.818;2023-07-22T07:12:24;2.13;;;0.90;;
28988;SDS011;16089;59.952;10.818;2023-07-22T07:14:50;1.88;;;0.80;;
28988;SDS011;16089;59.952;10.818;2023-07-22T07:17:17;2.20;;;0.90;;
28988;SDS011;16089;59.952;10.818;2023-07-22T07:19:43;2.10;;;0.70;;
28988;SDS011;16089;59.952;10.818;2023-07-22T07:22:10;1.75;;;0.80;;
28988;SDS011;16089;59.952;10.818;2023-07-22T07:24:37;2.47;;;0.80;;
28988;SDS011;16089;59.952;10.818;2023-07-22T07:27:04;1.83;;;0.80;;
28988;SDS011;16089;59.952;10.818;2023-07-22T07:29:30;2.72;;;0.95;;
28988;SDS011;16089;59.952;10.818;2023-07-22T07:31:57;2.47;;;1.00;;
28988;SDS011;16089;59.952;10.818;2023-07-22T07:34:23;5.78;;;1.00;;
28988;SDS011;16089;59.952;10.818;2023-07-22T07:36:49;1.48;;;0.75;;
28988;SDS011;16089;59.952;10.818;2023-07-22T07:39:15;1.55;;;0.70;;
28988;SDS011;16089;59.952;10.818;2023-07-22T07:41:43;1.80;;;0.85;;
28988;SDS011;16089;59.952;10.818;2023-07-22T07:44:09;2.33;;;0.80;;
28988;SDS011;16089;59.952;10.818;2023-07-22T07:46:36;1.85;;;0.80;;
28988;SDS011;16089;59.952;10.818;2023-07-22T07:49:03;3.17;;;0.90;;
28988;SDS011;16089;59.952;10.818;2023-07-22T07:51:30;1.50;;;0.73;;
28988;SDS011;16089;59.952;10.818;2023-07-22T07:53:57;1.98;;;0.73;;
28988;SDS011;16089;59.952;10.818;2023-07-22T07:56:24;2.50;;;0.85;;
28988;SDS011;16089;59.952;10.818;2023-07-22T07:58:52;1.50;;;0.70;;
28988;SDS011;16089;59.952;10.818;2023-07-22T08:01:19;2.45;;;0.82;;
28988;SDS011;16089;59.952;10.818;2023-07-22T08:03:46;2.78;;;0.80;;
28988;SDS011;16089;59.952;10.818;2023-07-22T08:06:12;1.25;;;0.68;;
28988;SDS011;16089;59.952;10.818;2023-07-22T08:08:39;1.70;;;0.80;;
28988;SDS011;16089;59.952;10.818;2023-07-22T08:11:06;1.85;;;0.70;;
28988;SDS011;16089;59.952;10.818;2023-07-22T08:13:32;1.60;;;0.70;;
28988;SDS011;16089;59.952;10.818;2023-07-22T08:16:00;1.23;;;0.60;;
28988;SDS011;16089;59.952;10.818;2023-07-22T08:18:26;1.80;;;0.68;;
28988;SDS011;16089;59.952;10.818;2023-07-22T08:20:53;2.63;;;0.80;;
28988;SDS011;16089;59.952;10.818;2023-07-22T08:23:19;1.80;;;0.70;;
28988;SDS011;16089;59.952;10.818;2023-07-22T08:25:46;1.60;;;0.60;;
28988;SDS011;16089;59.952;10.818;2023-07-22T08:28:12;1.27;;;0.60;;
28988;SDS011;16089;59.952;10.818;2023-07-22T08:30:39;1.67;;;0.70;;
28988;SDS011;16089;59.952;10.818;2023-07-22T08:33:06;2.15;;;0.65;;
28988;SDS011;16089;59.952;10.818;2023-07-22T08:35:33;1.83;;;0.50;;
28988;SDS011;16089;59.952;10.818;2023-07-22T08:38:00;2.10;;;0.65;;
28988;SDS011;16089;59.952;10.818;2023-07-22T08:40:27;1.25;;;0.55;;
28988;SDS011;16089;59.952;10.818;2023-07-22T08:42:53;1.00;;;0.45;;
28988;SDS011;16089;59.952;10.818;2023-07-22T08:45:20;1.63;;;0.60;;
28988;SDS011;16089;59.952;10.818;2023-07-22T08:47:46;1.40;;;0.55;;
28988;SDS011;16089;59.952;10.818;2023-07-22T08:50:15;2.90;;;1.00;;
28988;SDS011;16089;59.952;10.818;2023-07-22T08:52:43;2.72;;;0.70;;
28988;SDS011;16089;59.952;10.818;2023-07-22T08:55:09;4.93;;;0.70;;
28988;SDS011;16089;59.952;10.818;2023-07-22T08:57:36;4.00;;;0.63;;
28988;SDS011;16089;59.952;10.818;2023-07-22T09:00:03;2.38;;;0.63;;
28988;SDS011;16089;59.952;10.818;2023-07-22T09:02:31;3.83;;;0.60;;
28988;SDS011;16089;59.952;10.818;2023-07-22T09:04:58;3.33;;;0.60;;
28988;SDS011;16089;59.952;10.818;2023-07-22T09:07:26;1.88;;;0.65;;
28988;SDS011;16089;59.952;10.818;2023-07-22T09:09:52;2.03;;;0.50;;
28988;SDS011;16089;59.952;10.818;2023-07-22T09:12:20;0.90;;;0.52;;
28988;SDS011;16089;59.952;10.818;2023-07-22T09:14:47;2.60;;;0.70;;
28988;SDS011;16089;59.952;10.818;2023-07-22T09:17:14;2.10;;;0.90;;
28988;SDS011;16089;59.952;10.818;2023-07-22T09:19:40;1.50;;;0.55;;
28988;SDS011;16089;59.952;10.818;2023-07-22T09:22:07;1.95;;;0.60;;
28988;SDS011;16089;59.952;10.818;2023-07-22T09:24:35;1.17;;;0.43;;
28988;SDS011;16089;59.952;10.818;2023-07-22T09:27:01;1.83;;;0.65;;
28988;SDS011;16089;59.952;10.818;2023-07-22T09:29:33;1.67;;;0.63;;
28988;SDS011;16089;59.952;10.818;2023-07-22T09:32:00;2.88;;;0.80;;
28988;SDS011;16089;59.952;10.818;2023-07-22T09:34:28;2.90;;;0.70;;
28988;SDS011;16089;59.952;10.818;2023-07-22T09:36:55;2.28;;;0.63;;
28988;SDS011;16089;59.952;10.818;2023-07-22T09:39:21;4.00;;;0.65;;
28988;SDS011;16089;59.952;10.818;2023-07-22T09:41:49;1.63;;;0.70;;
28988;SDS011;16089;59.952;10.818;2023-07-22T09:44:17;3.63;;;0.60;;
28988;SDS011;16089;59.952;10.818;2023-07-22T09:46:46;2.10;;;0.60;;
28988;SDS011;16089;59.952;10.818;2023-07-22T09:49:12;2.85;;;0.80;;
28988;SDS011;16089;59.952;10.818;2023-07-22T09:51:39;2.42;;;0.80;;
28988;SDS011;16089;59.952;10.818;2023-07-22T09:54:06;1.10;;;0.50;;
28988;SDS011;16089;59.952;10.818;2023-07-22T09:56:44;1.63;;;0.70;;
28988;SDS011;16089;59.952;10.818;2023-07-22T09:59:12;2.45;;;0.57;;
28988;SDS011;16089;59.952;10.818;2023-07-22T10:01:39;1.63;;;0.55;;
28988;SDS011;16089;59.952;10.818;2023-07-22T10:04:06;1.45;;;0.60;;
28988;SDS011;16089;59.952;10.818;2023-07-22T10:06:32;1.20;;;0.50;;
28988;SDS011;16089;59.952;10.818;2023-07-22T10:08:59;2.72;;;0.60;;
28988;SDS011;16089;59.952;10.818;2023-07-22T10:11:29;3.55;;;0.80;;
28988;SDS011;16089;59.952;10.818;2023-07-22T10:13:57;2.35;;;0.50;;
28988;SDS011;16089;59.952;10.818;2023-07-22T10:16:26;1.77;;;0.60;;
28988;SDS011;16089;59.952;10.818;2023-07-22T10:18:53;3.05;;;0.60;;
28988;SDS011;16089;59.952;10.818;2023-07-22T10:21:19;1.70;;;0.52;;
28988;SDS011;16089;59.952;10.818;2023-07-22T10:23:46;1.48;;;0.50;;
28988;SDS011;16089;59.952;10.818;2023-07-22T10:26:13;1.05;;;0.40;;
28988;SDS011;16089;59.952;10.818;2023-07-22T10:28:41;1.88;;;0.60;;
28988;SDS011;16089;59.952;10.818;2023-07-22T10:31:08;0.90;;;0.43;;
28988;SDS011;16089;59.952;10.818;2023-07-22T10:33:36;1.08;;;0.55;;
28988;SDS011;16089;59.952;10.818;2023-07-22T10:36:03;2.60;;;0.52;;
28988;SDS011;16089;59.952;10.818;2023-07-22T10:38:30;1.38;;;0.50;;
28988;SDS011;16089;59.952;10.818;2023-07-22T10:40:56;2.60;;;0.68;;
28988;SDS011;16089;59.952;10.818;2023-07-22T10:43:24;1.92;;;0.80;;
28988;SDS011;16089;59.952;10.818;2023-07-22T10:45:51;1.88;;;0.60;;
28988;SDS011;16089;59.952;10.818;2023-07-22T10:48:17;2.25;;;0.80;;
28988;SDS011;16089;59.952;10.818;2023-07-22T10:50:46;1.25;;;0.50;;
28988;SDS011;16089;59.952;10.818;2023-07-22T10:53:14;3.30;;;0.75;;
28988;SDS011;16089;59.952;10.818;2023-07-22T10:58:58;2.83;;;0.70;;
28988;SDS011;16089;59.952;10.818;2023-07-22T11:01:30;1.23;;;0.60;;
28988;SDS011;16089;59.952;10.818;2023-07-22T11:04:06;1.30;;;0.63;;
28988;SDS011;16089;59.952;10.818;2023-07-22T11:06:34;1.85;;;0.50;;
28988;SDS011;16089;59.952;10.818;2023-07-22T11:09:00;1.33;;;0.52;;
28988;SDS011;16089;59.952;10.818;2023-07-22T11:11:38;2.83;;;0.70;;
28988;SDS011;16089;59.952;10.818;2023-07-22T11:14:14;4.22;;;0.77;;
28988;SDS011;16089;59.952;10.818;2023-07-22T11:16:41;2.83;;;0.80;;
28988;SDS011;16089;59.952;10.818;2023-07-22T11:19:08;1.60;;;0.77;;
28988;SDS011;16089;59.952;10.818;2023-07-22T11:21:35;5.20;;;0.60;;
28988;SDS011;16089;59.952;10.818;2023-07-22T11:24:02;2.33;;;0.65;;
28988;SDS011;16089;59.952;10.818;2023-07-22T11:26:29;2.65;;;0.57;;
28988;SDS011;16089;59.952;10.818;2023-07-22T11:28:55;3.78;;;0.60;;
28988;SDS011;16089;59.952;10.818;2023-07-22T11:31:22;2.75;;;0.80;;
28988;SDS011;16089;59.952;10.818;2023-07-22T11:33:49;3.47;;;0.70;;
28988;SDS011;16089;59.952;10.818;2023-07-22T11:36:15;2.00;;;0.77;;
28988;SDS011;16089;59.952;10.818;2023-07-22T11:38:43;1.55;;;0.70;;
28988;SDS011;16089;59.952;10.818;2023-07-22T11:41:09;2.75;;;0.88;;
28988;SDS011;16089;59.952;10.818;2023-07-22T11:43:36;2.42;;;1.00;;
28988;SDS011;16089;59.952;10.818;2023-07-22T11:46:04;4.03;;;1.00;;
28988;SDS011;16089;59.952;10.818;2023-07-22T11:48:30;2.88;;;0.80;;
28988;SDS011;16089;59.952;10.818;2023-07-22T11:50:58;4.75;;;1.00;;
28988;SDS011;16089;59.952;10.818;2023-07-22T11:53:25;1.88;;;0.63;;
28988;SDS011;16089;59.952;10.818;2023-07-22T11:55:53;1.52;;;0.70;;
28988;SDS011;16089;59.952;10.818;2023-07-22T11:58:23;2.42;;;0.65;;
28988;SDS011;16089;59.952;10.818;2023-07-22T12:01:01;2.42;;;0.63;;
28988;SDS011;16089;59.952;10.818;2023-07-22T12:03:30;3.20;;;0.82;;
28988;SDS011;16089;59.952;10.818;2023-07-22T12:05:58;1.15;;;0.50;;
28988;SDS011;16089;59.952;10.818;2023-07-22T12:08:26;4.05;;;0.73;;
28988;SDS011;16089;59.952;10.818;2023-07-22T12:10:57;4.68;;;0.80;;
28988;SDS011;16089;59.952;10.818;2023-07-22T12:13:23;3.20;;;1.00;;
28988;SDS011;16089;59.952;10.818;2023-07-22T12:15:58;3.63;;;0.80;;
28988;SDS011;16089;59.952;10.818;2023-07-22T12:18:25;3.22;;;0.80;;
28988;SDS011;16089;59.952;10.818;2023-07-22T12:20:51;1.73;;;0.70;;
28988;SDS011;16089;59.952;10.818;2023-07-22T12:23:17;1.88;;;0.60;;
28988;SDS011;16089;59.952;10.818;2023-07-22T12:25:46;5.80;;;0.80;;
28988;SDS011;16089;59.952;10.818;2023-07-22T12:28:14;3.03;;;0.70;;
28988;SDS011;16089;59.952;10.818;2023-07-22T12:30:40;4.22;;;0.98;;
28988;SDS011;16089;59.952;10.818;2023-07-22T12:33:06;1.05;;;0.50;;
28988;SDS011;16089;59.952;10.818;2023-07-22T12:35:33;2.05;;;0.75;;
28988;SDS011;16089;59.952;10.818;2023-07-22T12:37:59;2.42;;;0.70;;
28988;SDS011;16089;59.952;10.818;2023-07-22T12:40:25;2.97;;;0.80;;
28988;SDS011;16089;59.952;10.818;2023-07-22T12:42:52;2.25;;;0.80;;
28988;SDS011;16089;59.952;10.818;2023-07-22T12:45:19;5.18;;;0.63;;
28988;SDS011;16089;59.952;10.818;2023-07-22T12:47:46;2.65;;;0.88;;
28988;SDS011;16089;59.952;10.818;2023-07-22T12:50:12;3.83;;;0.90;;
28988;SDS011;16089;59.952;10.818;2023-07-22T12:52:38;1.67;;;0.80;;
28988;SDS011;16089;59.952;10.818;2023-07-22T12:55:05;3.05;;;0.93;;
28988;SDS011;16089;59.952;10.818;2023-07-22T12:57:31;4.93;;;1.30;;
28988;SDS011;16089;59.952;10.818;2023-07-22T12:59:58;3.85;;;1.13;;
28988;SDS011;16089;59.952;10.818;2023-07-22T13:02:25;3.53;;;1.20;;
28988;SDS011;16089;59.952;10.818;2023-07-22T13:04:52;6.50;;;1.40;;
28988;SDS011;16089;59.952;10.818;2023-07-22T13:07:18;4.90;;;1.40;;
28988;SDS011;16089;59.952;10.818;2023-07-22T13:09:45;2.85;;;1.20;;
28988;SDS011;16089;59.952;10.818;2023-07-22T13:12:13;6.80;;;2.10;;
28988;SDS011;16089;59.952;10.818;2023-07-22T13:14:40;2.95;;;1.55;;
28988;SDS011;16089;59.952;10.818;2023-07-22T13:17:06;7.65;;;1.75;;
28988;SDS011;16089;59.952;10.818;2023-07-22T13:19:34;6.00;;;1.70;;
28988;SDS011;16089;59.952;10.818;2023-07-22T13:22:00;3.97;;;1.52;;
28988;SDS011;16089;59.952;10.818;2023-07-22T13:24:26;6.93;;;2.00;;
28988;SDS011;16089;59.952;10.818;2023-07-22T13:26:53;6.03;;;1.95;;
28988;SDS011;16089;59.952;10.818;2023-07-22T13:29:20;3.72;;;1.98;;
28988;SDS011;16089;59.952;10.818;2023-07-22T13:31:46;8.00;;;1.95;;
28988;SDS011;16089;59.952;10.818;2023-07-22T13:34:12;7.45;;;1.98;;
28988;SDS011;16089;59.952;10.818;2023-07-22T13:36:40;6.57;;;1.83;;
28988;SDS011;16089;59.952;10.818;2023-07-22T13:39:06;5.25;;;2.10;;
28988;SDS011;16089;59.952;10.818;2023-07-22T13:41:33;5.88;;;1.90;;
28988;SDS011;16089;59.952;10.818;2023-07-22T13:43:59;7.28;;;1.92;;
28988;SDS011;16089;59.952;10.818;2023-07-22T13:46:25;6.30;;;2.00;;
28988;SDS011;16089;59.952;10.818;2023-07-22T13:48:52;6.25;;;1.77;;
28988;SDS011;16089;59.952;10.818;2023-07-22T13:51:18;4.65;;;1.80;;
28988;SDS011;16089;59.952;10.818;2023-07-22T13:53:45;4.60;;;1.60;;
28988;SDS011;16089;59.952;10.818;2023-07-22T13:56:12;4.47;;;1.20;;
28988;SDS011;16089;59.952;10.818;2023-07-22T13:58:38;4.70;;;1.42;;
28988;SDS011;16089;59.952;10.818;2023-07-22T14:01:04;2.97;;;0.82;;
28988;SDS011;16089;59.952;10.818;2023-07-22T14:03:31;3.65;;;1.02;;
28988;SDS011;16089;59.952;10.818;2023-07-22T14:05:57;4.28;;;1.10;;
28988;SDS011;16089;59.952;10.818;2023-07-22T14:08:23;5.57;;;1.30;;
28988;SDS011;16089;59.952;10.818;2023-07-22T14:10:51;3.72;;;1.20;;
28988;SDS011;16089;59.952;10.818;2023-07-22T14:13:17;3.30;;;1.33;;
28988;SDS011;16089;59.952;10.818;2023-07-22T14:15:44;3.53;;;1.38;;
28988;SDS011;16089;59.952;10.818;2023-07-22T14:18:10;4.43;;;1.30;;
28988;SDS011;16089;59.952;10.818;2023-07-22T14:20:41;5.53;;;1.55;;
28988;SDS011;16089;59.952;10.818;2023-07-22T14:23:08;5.43;;;1.33;;
28988;SDS011;16089;59.952;10.818;2023-07-22T14:25:34;4.03;;;1.42;;
28988;SDS011;16089;59.952;10.818;2023-07-22T14:28:02;2.05;;;0.90;;
28988;SDS011;16089;59.952;10.818;2023-07-22T14:30:28;3.83;;;1.60;;
28988;SDS011;16089;59.952;10.818;2023-07-22T14:32:55;3.05;;;1.38;;